KIMT/IMT METAR and TAF weather

Enter ICAO airport designator
Station Type Date Time Source
KIMT METAR 2019/02/20 23:22 UTC NOAA

KIMT 202322Z AUTO 11007G16KT 3/4SM -SN BR SCT011 OVC019 M05/M07 A2961 RMK AO2 P0000 T10501072


Station Type Date Time Source
KIMT Decoded METAR 2019/02/20 23:22 UTC NOAA

IRON MOUNTAIN FORD AIRPORT, MI, United States (KIMT) 45-49N 88-07W 349M
Feb 20, 2019 - 06:22 PM EST / 2019.02.20 2322 UTC
Wind: from the ESE (110 degrees) at 8 MPH (7 KT) gusting to 18 MPH (16 KT):0
Visibility: 3/4 mile(s):0
Sky conditions: overcast
Weather: light snow; mist
Precipitation last hour: A trace
Temperature: 23.0 F (-5.0 C)
Windchill: 14 F (-10 C):1
Dew Point: 19.0 F (-7.2 C)
Relative Humidity: 84%
Pressure (altimeter): 29.61 in. Hg (1002 hPa)
ob: KIMT 202322Z AUTO 11007G16KT 3/4SM -SN BR SCT011 OVC019 M05/M07 A2961 RMK AO2 P0000 T10501072
cycle: 23

Station Type Date Time Source
KIMT TAF UTC NOAA

Error!


Example: see airport list